createdAt,value
2023-10-23T00:00:45.106Z,100.00
2023-10-23T00:03:15.684Z,100.00
2023-10-23T00:05:44.570Z,100.00
2023-10-23T00:08:13.818Z,100.00
2023-10-23T00:10:43.776Z,100.00
2023-10-23T00:13:12.773Z,100.00
2023-10-23T00:15:42.370Z,100.00
2023-10-23T00:18:11.480Z,100.00
2023-10-23T00:20:41.817Z,100.00
2023-10-23T00:23:10.377Z,100.00
2023-10-23T00:25:38.982Z,100.00
2023-10-23T00:28:08.074Z,100.00
2023-10-23T00:30:37.535Z,100.00
2023-10-23T00:33:06.574Z,100.00
2023-10-23T00:35:35.106Z,100.00
2023-10-23T00:38:05.345Z,100.00
2023-10-23T00:40:34.138Z,100.00
2023-10-23T00:43:13.716Z,100.00
2023-10-23T00:45:51.566Z,100.00
2023-10-23T00:48:23.934Z,100.00
2023-10-23T00:50:53.109Z,100.00
2023-10-23T00:53:26.862Z,100.00
2023-10-23T00:55:57.473Z,100.00
2023-10-23T00:58:27.589Z,100.00
2023-10-23T01:00:57.127Z,100.00
2023-10-23T01:03:26.528Z,100.00
2023-10-23T01:05:55.219Z,100.00
2023-10-23T01:08:25.048Z,100.00
2023-10-23T01:10:53.780Z,100.00
2023-10-23T01:13:22.714Z,100.00
2023-10-23T01:15:52.455Z,100.00
2023-10-23T01:18:22.247Z,100.00
2023-10-23T01:20:51.136Z,100.00
2023-10-23T01:23:20.007Z,100.00
2023-10-23T01:25:50.025Z,100.00
2023-10-23T01:28:19.060Z,100.00
2023-10-23T01:30:47.929Z,100.00
2023-10-23T01:33:16.968Z,100.00
2023-10-23T01:35:45.838Z,100.00
2023-10-23T01:38:16.037Z,100.00
2023-10-23T01:40:44.741Z,100.00
2023-10-23T01:43:15.801Z,100.00
2023-10-23T01:45:44.748Z,100.00
2023-10-23T01:48:15.706Z,100.00
2023-10-23T01:50:44.525Z,100.00
2023-10-23T01:53:13.498Z,100.00
2023-10-23T01:55:42.702Z,100.00
2023-10-23T01:58:11.519Z,100.00
2023-10-23T02:00:42.817Z,100.00
2023-10-23T02:03:11.674Z,100.00
2023-10-23T02:05:40.740Z,100.00
2023-10-23T02:08:09.672Z,100.00
2023-10-23T02:10:38.346Z,100.00
2023-10-23T02:13:07.226Z,100.00
2023-10-23T02:15:35.820Z,100.00
2023-10-23T02:18:06.223Z,100.00
2023-10-23T02:20:35.062Z,100.00
2023-10-23T02:23:04.904Z,100.00
2023-10-23T02:25:33.841Z,100.00
2023-10-23T02:28:03.385Z,100.00
2023-10-23T02:30:33.620Z,100.00
2023-10-23T02:33:03.133Z,100.00
2023-10-23T02:35:37.809Z,100.00
2023-10-23T02:38:07.232Z,100.00
2023-10-23T02:40:36.372Z,100.00
2023-10-23T02:43:05.772Z,100.00
2023-10-23T02:45:37.317Z,100.00
2023-10-23T02:48:06.554Z,100.00
2023-10-23T02:50:37.018Z,100.00
2023-10-23T02:53:07.010Z,100.00
2023-10-23T02:55:35.653Z,100.00
2023-10-23T02:58:04.720Z,100.00
2023-10-23T03:00:34.268Z,100.00
2023-10-23T03:03:03.485Z,100.00
2023-10-23T03:05:32.924Z,100.00
2023-10-23T03:08:04.206Z,100.00
2023-10-23T03:10:33.485Z,100.00
2023-10-23T03:13:02.194Z,100.00
2023-10-23T03:15:31.748Z,100.00
2023-10-23T03:18:04.954Z,100.00
2023-10-23T03:20:34.083Z,100.00
2023-10-23T03:23:04.829Z,100.00
2023-10-23T03:25:33.890Z,100.00
2023-10-23T03:28:03.612Z,100.00
2023-10-23T03:30:33.009Z,100.00
2023-10-23T03:33:03.228Z,100.00
2023-10-23T03:35:31.950Z,100.00
2023-10-23T03:38:03.408Z,100.00
2023-10-23T03:40:32.258Z,100.00
2023-10-23T03:43:00.803Z,100.00
2023-10-23T03:45:29.867Z,100.00
2023-10-23T03:48:00.243Z,100.00
2023-10-23T03:50:29.242Z,100.00
2023-10-23T03:52:58.106Z,100.00
2023-10-23T03:55:28.580Z,100.00
2023-10-23T03:57:56.985Z,100.00
2023-10-23T04:00:26.389Z,100.00
2023-10-23T04:02:57.442Z,100.00
2023-10-23T04:05:26.457Z,100.00
2023-10-23T04:07:54.840Z,100.00
2023-10-23T04:10:23.035Z,100.00
2023-10-23T04:12:53.393Z,100.00
2023-10-23T04:15:22.857Z,100.00
2023-10-23T04:17:51.711Z,100.00
2023-10-23T04:20:20.667Z,100.00
2023-10-23T04:22:49.521Z,100.00
2023-10-23T04:25:19.035Z,100.00
2023-10-23T04:27:48.261Z,100.00
2023-10-23T04:30:18.983Z,100.00
2023-10-23T04:32:48.367Z,100.00
2023-10-23T04:35:19.426Z,100.00
2023-10-23T04:37:48.227Z,100.00
2023-10-23T04:40:17.143Z,100.00
2023-10-23T04:42:45.962Z,100.00
2023-10-23T04:45:14.283Z,100.00
2023-10-23T04:47:44.618Z,100.00
2023-10-23T04:50:13.695Z,100.00
2023-10-23T04:52:45.110Z,100.00
2023-10-23T04:55:14.358Z,100.00
2023-10-23T04:57:43.859Z,100.00
2023-10-23T05:00:14.028Z,100.00
2023-10-23T05:02:44.436Z,100.00
2023-10-23T05:05:13.460Z,100.00
2023-10-23T05:07:42.124Z,100.00
2023-10-23T05:10:12.523Z,100.00
2023-10-23T05:12:41.838Z,100.00
2023-10-23T05:15:12.288Z,100.00
2023-10-23T05:17:40.956Z,100.00
2023-10-23T05:20:11.547Z,100.00
2023-10-23T05:22:40.134Z,100.00
2023-10-23T05:25:09.844Z,100.00
2023-10-23T05:27:38.835Z,100.00
2023-10-23T05:30:09.177Z,100.00
2023-10-23T05:32:39.266Z,100.00
2023-10-23T05:35:08.671Z,100.00
2023-10-23T05:37:39.372Z,100.00
2023-10-23T05:40:09.888Z,100.00
2023-10-23T05:42:38.667Z,100.00
2023-10-23T05:45:08.450Z,100.00
2023-10-23T05:47:37.035Z,100.00
2023-10-23T05:50:06.654Z,100.00
2023-10-23T05:52:35.158Z,100.00
2023-10-23T05:55:05.997Z,100.00
2023-10-23T05:57:34.650Z,100.00
2023-10-23T06:00:05.176Z,100.00
2023-10-23T06:02:34.367Z,100.00
2023-10-23T06:05:03.365Z,100.00
2023-10-23T06:07:32.679Z,100.00
2023-10-23T06:10:01.336Z,100.00
2023-10-23T06:12:31.653Z,100.00
2023-10-23T06:15:02.416Z,100.00
2023-10-23T06:17:31.116Z,100.00
2023-10-23T06:19:59.468Z,100.00
2023-10-23T06:22:28.159Z,100.00
2023-10-23T06:24:56.920Z,100.00
2023-10-23T06:27:25.674Z,100.00
2023-10-23T06:29:56.378Z,100.00
2023-10-23T06:32:24.751Z,100.00
2023-10-23T06:34:54.835Z,100.00
2023-10-23T06:37:23.457Z,100.00
2023-10-23T06:39:52.201Z,100.00
2023-10-23T06:42:20.618Z,100.00
2023-10-23T06:44:49.034Z,100.00
2023-10-23T06:47:19.027Z,100.00
2023-10-23T06:49:48.221Z,100.00
2023-10-23T06:52:16.695Z,100.00
2023-10-23T06:54:45.311Z,100.00
2023-10-23T06:57:14.257Z,100.00
2023-10-23T06:59:43.224Z,100.00
2023-10-23T07:02:12.405Z,100.00
2023-10-23T07:04:43.151Z,100.00
2023-10-23T07:07:22.493Z,99.92
2023-10-23T07:10:01.033Z,99.73
2023-10-23T07:12:30.308Z,99.17
2023-10-23T07:14:59.357Z,98.28
2023-10-23T07:17:29.279Z,97.69
2023-10-23T07:19:59.403Z,98.43
2023-10-23T07:22:27.952Z,97.22
2023-10-23T07:24:57.420Z,96.99
2023-10-23T07:27:27.181Z,96.57
2023-10-23T07:29:57.292Z,96.47
2023-10-23T07:32:26.186Z,96.10
2023-10-23T07:34:55.807Z,95.87
2023-10-23T07:37:28.519Z,95.17
2023-10-23T07:39:57.315Z,94.70
2023-10-23T07:42:26.163Z,93.82
2023-10-23T07:44:55.014Z,92.53
2023-10-23T07:47:23.836Z,91.14
2023-10-23T07:49:52.591Z,90.21
2023-10-23T07:52:21.840Z,89.61
2023-10-23T07:54:54.113Z,88.76
2023-10-23T07:57:22.696Z,88.34
2023-10-23T07:59:52.856Z,86.67
2023-10-23T08:02:23.865Z,84.19
2023-10-23T08:04:53.274Z,84.42
2023-10-23T08:07:22.299Z,84.54
2023-10-23T08:09:51.557Z,83.59
2023-10-23T08:12:22.124Z,85.41
2023-10-23T08:14:51.996Z,86.50
2023-10-23T08:17:41.459Z,84.95
2023-10-23T08:20:16.624Z,82.52
2023-10-23T08:22:49.550Z,78.65
2023-10-23T08:25:18.910Z,73.04
2023-10-23T08:27:49.817Z,65.52
2023-10-23T08:30:18.859Z,60.01
2023-10-23T08:32:52.874Z,60.50
2023-10-23T08:35:22.650Z,63.47
2023-10-23T08:37:52.073Z,64.44
2023-10-23T08:40:21.451Z,64.33
2023-10-23T08:42:51.832Z,65.02
2023-10-23T08:45:21.421Z,65.17
2023-10-23T08:47:50.103Z,65.43
2023-10-23T08:50:19.135Z,64.55
2023-10-23T08:52:52.513Z,64.42
2023-10-23T08:55:21.253Z,62.71
2023-10-23T08:57:55.850Z,60.29
2023-10-23T09:00:25.413Z,56.94
2023-10-23T09:02:54.605Z,55.33
2023-10-23T09:05:25.760Z,52.86
2023-10-23T09:07:55.071Z,51.94
2023-10-23T09:10:24.218Z,50.67
2023-10-23T09:12:58.274Z,49.10
2023-10-23T09:15:27.216Z,46.86
2023-10-23T09:17:55.807Z,44.80
2023-10-23T09:20:28.720Z,43.40
2023-10-23T09:22:57.637Z,44.01
2023-10-23T09:25:27.549Z,44.45
2023-10-23T09:27:58.093Z,41.66
2023-10-23T09:30:27.104Z,40.42
2023-10-23T09:32:56.635Z,38.91
2023-10-23T09:35:27.238Z,36.78
2023-10-23T09:37:56.343Z,35.25
2023-10-23T09:40:25.592Z,34.35
2023-10-23T09:42:55.825Z,34.30
2023-10-23T09:45:26.797Z,35.39
2023-10-23T09:47:57.836Z,35.14
2023-10-23T09:50:28.804Z,35.67
2023-10-23T09:52:59.578Z,35.67
2023-10-23T09:55:29.849Z,33.49
2023-10-23T09:57:59.040Z,32.83
2023-10-23T10:00:29.905Z,32.02
2023-10-23T10:03:02.147Z,31.30
2023-10-23T10:05:38.087Z,34.10
2023-10-23T10:08:10.496Z,34.26
2023-10-23T10:10:39.421Z,32.56
2023-10-23T10:13:08.832Z,31.24
2023-10-23T10:15:40.324Z,30.13
2023-10-23T10:18:08.920Z,30.78
2023-10-23T10:20:39.222Z,31.40
2023-10-23T10:23:10.402Z,30.67
2023-10-23T10:25:40.159Z,30.51
2023-10-23T10:28:09.836Z,29.32
2023-10-23T10:30:48.644Z,30.14
2023-10-23T10:34:19.598Z,29.64
2023-10-23T10:36:13.577Z,30.04
2023-10-23T10:38:44.803Z,30.88
2023-10-23T10:41:17.999Z,29.52
2023-10-23T10:43:54.153Z,28.95
2023-10-23T10:46:25.947Z,30.08
2023-10-23T10:48:56.264Z,30.48
2023-10-23T10:51:27.339Z,29.67
2023-10-23T10:53:59.628Z,29.43
2023-10-23T10:56:29.182Z,29.28
2023-10-23T10:58:58.010Z,29.11
2023-10-23T11:01:28.893Z,30.33
2023-10-23T11:03:57.431Z,32.52
2023-10-23T11:06:27.084Z,33.53
2023-10-23T11:08:58.853Z,33.76
2023-10-23T11:11:28.718Z,33.42
2023-10-23T11:14:04.065Z,34.93
2023-10-23T11:16:35.177Z,37.53
2023-10-23T11:19:04.132Z,39.46
2023-10-23T11:21:34.274Z,42.23
2023-10-23T11:24:05.631Z,43.59
2023-10-23T11:26:34.530Z,44.57
2023-10-23T11:29:02.802Z,44.18
2023-10-23T11:31:32.220Z,42.94
2023-10-23T11:34:10.936Z,42.72
2023-10-23T11:36:40.078Z,39.24
2023-10-23T11:39:10.467Z,36.11
2023-10-23T11:41:38.954Z,36.45
2023-10-23T11:44:08.989Z,39.83
2023-10-23T11:46:38.066Z,41.60
2023-10-23T11:49:09.535Z,41.83
2023-10-23T11:51:38.849Z,43.13
2023-10-23T11:54:08.718Z,42.89
2023-10-23T11:56:38.708Z,43.07
2023-10-23T11:59:07.880Z,44.56
2023-10-23T12:01:36.503Z,44.48
2023-10-23T12:04:05.937Z,43.81
2023-10-23T12:06:36.120Z,43.73
2023-10-23T12:09:05.271Z,45.27
2023-10-23T12:11:34.134Z,44.54
2023-10-23T12:14:04.007Z,45.00
2023-10-23T12:16:33.153Z,46.41
2023-10-23T12:19:02.032Z,46.66
2023-10-23T12:21:31.623Z,45.91
2023-10-23T12:24:02.267Z,48.44
2023-10-23T12:26:31.213Z,47.52
2023-10-23T12:29:00.714Z,47.92
2023-10-23T12:31:30.036Z,48.83
2023-10-23T12:34:02.883Z,49.20
2023-10-23T12:36:32.602Z,48.62
2023-10-23T12:39:02.736Z,49.13
2023-10-23T12:41:31.932Z,50.18
2023-10-23T12:44:00.644Z,49.77
2023-10-23T12:46:30.872Z,49.67
2023-10-23T12:49:00.468Z,50.54
2023-10-23T12:51:29.525Z,51.95
2023-10-23T12:53:58.744Z,53.94
2023-10-23T12:56:29.661Z,56.13
2023-10-23T12:58:58.399Z,56.63
2023-10-23T13:01:27.310Z,57.45
2023-10-23T13:03:56.156Z,56.07
2023-10-23T13:06:25.264Z,57.19
2023-10-23T13:08:53.790Z,57.81
2023-10-23T13:11:23.573Z,58.00
2023-10-23T13:13:53.594Z,59.28
2023-10-23T13:16:23.989Z,59.76
2023-10-23T13:18:54.143Z,59.74
2023-10-23T13:21:32.918Z,59.63
2023-10-23T13:24:03.761Z,59.98
2023-10-23T13:26:32.139Z,60.67
2023-10-23T13:29:02.925Z,61.01
2023-10-23T13:31:32.499Z,61.87
2023-10-23T13:34:01.933Z,61.57
2023-10-23T13:36:30.902Z,60.12
2023-10-23T13:39:01.710Z,59.13
2023-10-23T13:41:30.950Z,59.13
2023-10-23T13:44:01.575Z,58.58
2023-10-23T13:46:30.420Z,56.23
2023-10-23T13:48:59.231Z,52.68
2023-10-23T13:51:28.549Z,49.83
2023-10-23T13:53:57.952Z,46.22
2023-10-23T13:56:27.691Z,44.78
2023-10-23T13:58:56.654Z,44.19
2023-10-23T14:01:27.032Z,44.03
2023-10-23T14:03:56.383Z,44.40
2023-10-23T14:06:26.167Z,42.72
2023-10-23T14:09:40.731Z,40.87
2023-10-23T14:11:59.644Z,40.42
2023-10-23T14:14:30.872Z,40.74
2023-10-23T14:17:02.088Z,40.62
2023-10-23T14:19:45.694Z,39.25
2023-10-23T14:22:17.466Z,39.62
2023-10-23T14:24:46.663Z,41.43
2023-10-23T14:27:15.506Z,44.11
2023-10-23T14:29:44.244Z,45.57
2023-10-23T14:32:14.482Z,47.32
2023-10-23T14:34:43.431Z,45.87
2023-10-23T14:37:12.438Z,45.88
2023-10-23T14:39:41.754Z,45.87
2023-10-23T14:42:13.399Z,47.23
2023-10-23T14:44:42.146Z,48.11
2023-10-23T14:47:11.605Z,48.26
2023-10-23T14:49:41.394Z,49.23
2023-10-23T14:52:10.754Z,49.98
2023-10-23T14:54:39.543Z,52.14
2023-10-23T14:57:08.946Z,54.83
2023-10-23T14:59:38.200Z,57.23
2023-10-23T15:02:07.337Z,57.81
2023-10-23T15:04:37.496Z,57.83
2023-10-23T15:07:07.546Z,59.92
2023-10-23T15:09:36.382Z,60.87
2023-10-23T15:12:05.280Z,62.07
2023-10-23T15:14:33.936Z,63.65
2023-10-23T15:17:02.857Z,64.96
2023-10-23T15:19:32.030Z,65.53
2023-10-23T15:22:01.686Z,67.05
2023-10-23T15:24:32.268Z,68.84
2023-10-23T15:27:01.919Z,69.76
2023-10-23T15:29:31.541Z,71.16
2023-10-23T15:32:00.942Z,71.45
2023-10-23T15:34:29.826Z,73.06
2023-10-23T15:36:58.929Z,73.86
2023-10-23T15:39:27.709Z,74.90
2023-10-23T15:41:57.622Z,75.75
2023-10-23T15:44:32.288Z,77.13
2023-10-23T15:47:01.150Z,77.55
2023-10-23T15:49:30.239Z,78.75
2023-10-23T15:51:58.953Z,80.04
2023-10-23T15:54:27.748Z,80.20
2023-10-23T15:56:58.211Z,81.22
2023-10-23T15:59:26.955Z,82.50
2023-10-23T16:01:55.468Z,82.81
2023-10-23T16:04:24.806Z,83.42
2023-10-23T16:06:53.856Z,84.04
2023-10-23T16:09:27.564Z,84.96
2023-10-23T16:12:09.208Z,85.80
2023-10-23T16:17:12.521Z,87.84
2023-10-23T16:19:40.830Z,88.51
2023-10-23T16:22:10.002Z,88.90
2023-10-23T16:24:38.637Z,89.18
2023-10-23T16:27:09.915Z,90.79
2023-10-23T16:29:38.628Z,91.90
2023-10-23T16:32:08.662Z,93.64
2023-10-23T16:34:37.683Z,94.42
2023-10-23T16:37:06.588Z,94.71
2023-10-23T16:39:38.517Z,96.50
2023-10-23T16:42:09.523Z,97.18
2023-10-23T16:44:52.419Z,96.93
2023-10-23T16:47:24.241Z,96.56
2023-10-23T16:49:54.465Z,96.06
2023-10-23T16:52:23.866Z,96.24
2023-10-23T16:54:53.122Z,96.39
2023-10-23T16:57:23.662Z,96.62
2023-10-23T16:59:52.625Z,95.94
2023-10-23T17:02:21.567Z,97.35
2023-10-23T17:04:52.141Z,98.19
2023-10-23T17:07:20.869Z,98.01
2023-10-23T17:09:49.653Z,98.59
2023-10-23T17:12:18.074Z,99.85
2023-10-23T17:14:48.423Z,100.00
2023-10-23T17:17:17.755Z,100.00
2023-10-23T17:19:48.436Z,100.00
2023-10-23T17:22:17.261Z,100.00
2023-10-23T17:24:46.192Z,100.00
2023-10-23T17:27:15.187Z,100.00
2023-10-23T17:29:44.972Z,100.00
2023-10-23T17:32:15.622Z,100.00
2023-10-23T17:34:46.088Z,100.00
2023-10-23T17:37:15.598Z,100.00
2023-10-23T17:39:45.221Z,100.00
2023-10-23T17:42:14.444Z,100.00
2023-10-23T17:44:43.337Z,100.00
2023-10-23T17:47:12.337Z,100.00
2023-10-23T17:49:42.520Z,100.00
2023-10-23T17:52:11.627Z,100.00
2023-10-23T17:54:41.884Z,100.00
2023-10-23T17:57:10.971Z,100.00
2023-10-23T17:59:40.951Z,100.00
2023-10-23T18:02:13.163Z,100.00
2023-10-23T18:04:43.807Z,100.00
2023-10-23T18:07:13.026Z,100.00
2023-10-23T18:09:45.011Z,100.00
2023-10-23T18:12:26.891Z,100.00
2023-10-23T18:15:00.692Z,100.00
2023-10-23T18:17:29.631Z,100.00
2023-10-23T18:20:00.617Z,100.00
2023-10-23T18:22:29.408Z,100.00
2023-10-23T18:24:58.690Z,100.00
2023-10-23T18:27:27.861Z,100.00
2023-10-23T18:29:56.793Z,100.00
2023-10-23T18:32:26.145Z,100.00
2023-10-23T18:34:54.841Z,100.00
2023-10-23T18:37:25.650Z,100.00
2023-10-23T18:39:54.809Z,100.00
2023-10-23T18:42:24.921Z,100.00
2023-10-23T18:44:54.938Z,100.00
2023-10-23T18:47:23.545Z,100.00
2023-10-23T18:49:52.840Z,100.00
2023-10-23T18:52:21.920Z,100.00
2023-10-23T18:54:51.736Z,100.00
2023-10-23T18:57:20.049Z,100.00
2023-10-23T18:59:49.100Z,100.00
2023-10-23T19:02:17.684Z,100.00
2023-10-23T19:04:46.096Z,100.00
2023-10-23T19:07:17.438Z,100.00
2023-10-23T19:09:47.092Z,100.00
2023-10-23T19:12:17.408Z,100.00
2023-10-23T19:14:46.348Z,100.00
2023-10-23T19:17:28.822Z,100.00
2023-10-23T19:20:06.889Z,100.00
2023-10-23T19:22:37.197Z,100.00
2023-10-23T19:25:07.144Z,100.00
2023-10-23T19:27:37.321Z,100.00
2023-10-23T19:30:06.689Z,100.00
2023-10-23T19:32:35.878Z,100.00
2023-10-23T19:35:05.297Z,100.00
2023-10-23T19:37:35.585Z,100.00
2023-10-23T19:40:06.290Z,100.00
2023-10-23T19:42:40.977Z,100.00
2023-10-23T19:45:14.421Z,100.00
2023-10-23T19:47:44.086Z,100.00
2023-10-23T19:50:14.283Z,100.00
2023-10-23T19:52:44.501Z,100.00
2023-10-23T19:55:44.873Z,100.00
2023-10-23T19:58:08.544Z,100.00
2023-10-23T20:00:38.156Z,100.00
2023-10-23T20:03:07.562Z,100.00
2023-10-23T20:05:36.303Z,100.00
2023-10-23T20:08:06.070Z,100.00
2023-10-23T20:10:34.894Z,100.00
2023-10-23T20:13:07.979Z,100.00
2023-10-23T20:15:38.668Z,100.00
2023-10-23T20:18:08.979Z,100.00
2023-10-23T20:20:38.748Z,100.00
2023-10-23T20:23:07.959Z,100.00
2023-10-23T20:25:37.473Z,100.00
2023-10-23T20:28:08.244Z,100.00
2023-10-23T20:30:38.190Z,100.00
2023-10-23T20:33:07.360Z,100.00
2023-10-23T20:35:36.127Z,100.00
2023-10-23T20:38:05.563Z,100.00
2023-10-23T20:40:39.783Z,100.00
2023-10-23T20:43:10.265Z,100.00
2023-10-23T20:45:40.354Z,100.00
2023-10-23T20:48:09.472Z,100.00
2023-10-23T20:50:38.384Z,100.00
2023-10-23T20:53:07.854Z,100.00
2023-10-23T20:55:39.901Z,100.00
2023-10-23T20:58:10.760Z,100.00
2023-10-23T21:00:40.161Z,100.00
2023-10-23T21:03:11.552Z,100.00
2023-10-23T21:05:41.028Z,100.00
2023-10-23T21:08:10.995Z,100.00
2023-10-23T21:10:39.655Z,100.00
2023-10-23T21:13:09.920Z,100.00
2023-10-23T21:15:39.233Z,100.00
2023-10-23T21:18:07.945Z,100.00
2023-10-23T21:20:37.138Z,100.00
2023-10-23T21:23:07.152Z,100.00
2023-10-23T21:25:36.425Z,100.00
2023-10-23T21:28:06.237Z,100.00
2023-10-23T21:30:37.320Z,100.00
2023-10-23T21:33:06.235Z,100.00
2023-10-23T21:35:36.139Z,100.00
2023-10-23T21:38:06.159Z,100.00
2023-10-23T21:40:35.838Z,100.00
2023-10-23T21:43:05.754Z,100.00
2023-10-23T21:45:41.459Z,100.00
2023-10-23T21:48:13.511Z,100.00
2023-10-23T21:50:46.045Z,100.00
2023-10-23T21:53:16.038Z,100.00
2023-10-23T21:55:45.431Z,100.00
2023-10-23T21:58:15.308Z,100.00
2023-10-23T22:00:46.947Z,100.00
2023-10-23T22:03:18.361Z,100.00
2023-10-23T22:05:48.871Z,100.00
2023-10-23T22:08:17.958Z,100.00
2023-10-23T22:10:47.913Z,100.00
2023-10-23T22:13:17.632Z,100.00
2023-10-23T22:15:49.057Z,100.00
2023-10-23T22:18:17.757Z,100.00
2023-10-23T22:20:47.180Z,100.00
2023-10-23T22:23:16.577Z,100.00
2023-10-23T22:25:46.309Z,100.00
2023-10-23T22:28:15.597Z,100.00
2023-10-23T22:30:43.603Z,100.00
2023-10-23T22:33:15.281Z,100.00
2023-10-23T22:35:44.380Z,100.00
2023-10-23T22:38:15.199Z,100.00
2023-10-23T22:40:45.246Z,100.00
2023-10-23T22:43:14.806Z,100.00
2023-10-23T22:45:59.604Z,100.00
2023-10-23T22:48:32.778Z,100.00
2023-10-23T22:51:01.914Z,100.00
2023-10-23T22:53:31.482Z,100.00
2023-10-23T22:56:02.521Z,100.00
2023-10-23T22:58:33.226Z,100.00
2023-10-23T23:01:03.601Z,100.00
2023-10-23T23:03:34.138Z,100.00
2023-10-23T23:06:07.427Z,100.00
2023-10-23T23:08:39.870Z,100.00
2023-10-23T23:11:09.390Z,100.00
2023-10-23T23:13:38.134Z,100.00
2023-10-23T23:16:08.146Z,100.00
2023-10-23T23:18:39.874Z,100.00
2023-10-23T23:21:09.977Z,100.00
2023-10-23T23:23:38.615Z,100.00
2023-10-23T23:26:07.724Z,100.00
2023-10-23T23:28:36.655Z,100.00
2023-10-23T23:31:06.358Z,100.00
2023-10-23T23:33:35.385Z,100.00
2023-10-23T23:36:07.465Z,100.00
2023-10-23T23:38:36.374Z,100.00
2023-10-23T23:41:05.015Z,100.00
2023-10-23T23:43:33.430Z,100.00
2023-10-23T23:46:03.271Z,100.00
2023-10-23T23:48:32.210Z,100.00
2023-10-23T23:51:01.558Z,100.00
2023-10-23T23:53:32.017Z,100.00
2023-10-23T23:56:01.077Z,100.00
2023-10-23T23:58:32.782Z,100.00
